Time;durP1;ratioP1;P1;durP2;ratioP2;P2;SDS_P1;SDS_P2;PMS_P1;PMS_P2;Temp;Humidity;BMP_temperature;BMP_pressure;BME280_temperature;BME280_humidity;BME280_pressure;Samples;Min_cycle;Max_cycle;Signal;HPM_P1;HPM_P2
2023/01/01 00:01:14;;;;;;;1.30;1.20;;;12.50;99.90;;;;;;5042871;28;20065;-86
2023/01/01 00:03:39;;;;;;;3.95;1.77;;;12.50;99.90;;;;;;5058925;28;20131;-86
2023/01/01 00:06:14;;;;;;;1.50;1.40;;;12.50;99.90;;;;;;5058670;28;20134;-87
2023/01/01 00:08:40;;;;;;;2.25;1.40;;;12.50;99.90;;;;;;5058514;28;20492;-87
2023/01/01 00:11:07;;;;;;;3.73;1.63;;;12.40;99.90;;;;;;5041350;28;20128;-86
2023/01/01 00:13:35;;;;;;;1.45;1.35;;;12.40;99.90;;;;;;5041359;28;20048;-86
2023/01/01 00:16:09;;;;;;;2.70;2.08;;;12.30;99.90;;;;;;5041714;28;20127;-87
2023/01/01 00:18:35;;;;;;;2.67;1.17;;;12.30;99.90;;;;;;5057698;28;20052;-86
2023/01/01 00:21:10;;;;;;;2.15;1.60;;;12.20;99.90;;;;;;5041662;28;20036;-86
2023/01/01 00:23:37;;;;;;;2.20;1.77;;;12.10;99.90;;;;;;5041434;28;20044;-86
2023/01/01 00:26:09;;;;;;;4.10;2.05;;;12.10;99.90;;;;;;5058293;28;20099;-86
2023/01/01 00:28:35;;;;;;;4.07;2.63;;;12.10;99.90;;;;;;5041680;28;20076;-87
2023/01/01 00:31:12;;;;;;;2.43;2.13;;;12.00;99.90;;;;;;5021697;28;20083;-86
2023/01/01 00:33:39;;;;;;;4.07;2.17;;;12.00;99.90;;;;;;5037731;28;20040;-86
2023/01/01 00:36:08;;;;;;;3.17;2.55;;;12.00;99.90;;;;;;5021590;28;20041;-86
2023/01/01 00:38:34;;;;;;;5.10;3.05;;;12.00;99.90;;;;;;5020884;28;20100;-87
2023/01/01 00:41:00;;;;;;;5.32;3.75;;;11.90;99.90;;;;;;5037979;28;20045;-87
2023/01/01 00:43:26;;;;;;;3.70;2.58;;;11.90;99.90;;;;;;5037409;28;20049;-86
2023/01/01 00:45:52;;;;;;;7.10;3.30;;;11.90;99.90;;;;;;5021739;28;20521;-87
2023/01/01 00:48:18;;;;;;;6.07;3.83;;;11.90;99.90;;;;;;5021096;28;20479;-88
2023/01/01 00:50:44;;;;;;;4.28;3.33;;;11.90;99.90;;;;;;5020776;28;20067;-87
2023/01/01 00:53:10;;;;;;;5.22;3.15;;;12.00;99.90;;;;;;5004496;28;20048;-86
2023/01/01 00:55:37;;;;;;;6.67;2.80;;;12.00;99.90;;;;;;5004493;28;20459;-86
2023/01/01 00:58:03;;;;;;;4.38;2.90;;;12.10;99.90;;;;;;5021403;28;20079;-87
2023/01/01 01:00:29;;;;;;;7.60;4.13;;;12.10;99.90;;;;;;5033393;28;20044;-87
2023/01/01 01:02:54;;;;;;;4.83;3.77;;;12.10;99.90;;;;;;5041240;28;20056;-86
2023/01/01 01:05:20;;;;;;;3.40;2.90;;;12.20;99.90;;;;;;5040581;28;20541;-88
2023/01/01 01:07:46;;;;;;;3.73;2.57;;;12.20;99.90;;;;;;5041153;28;20036;-86
2023/01/01 01:10:11;;;;;;;2.87;2.67;;;12.30;99.90;;;;;;5057686;28;20052;-87
2023/01/01 01:12:37;;;;;;;3.83;3.47;;;12.30;99.90;;;;;;5040486;28;20094;-87
2023/01/01 01:15:05;;;;;;;6.18;3.38;;;12.30;99.90;;;;;;5040869;28;20098;-87
2023/01/01 01:17:31;;;;;;;4.80;2.60;;;12.30;99.90;;;;;;5073038;28;20032;-87
2023/01/01 01:19:57;;;;;;;4.40;2.33;;;12.40;99.90;;;;;;5039930;28;20044;-87
2023/01/01 01:22:23;;;;;;;4.37;2.40;;;12.40;99.90;;;;;;5056802;28;20049;-88
2023/01/01 01:24:48;;;;;;;3.53;3.00;;;12.30;99.90;;;;;;5007819;28;20044;-87
2023/01/01 01:27:14;;;;;;;4.53;2.67;;;12.30;99.90;;;;;;5057010;28;20051;-87
2023/01/01 01:29:40;;;;;;;3.00;1.83;;;12.20;99.90;;;;;;5041245;28;20178;-87
2023/01/01 01:32:05;;;;;;;4.30;3.40;;;12.20;99.90;;;;;;5040387;28;20041;-87
2023/01/01 01:34:32;;;;;;;6.93;2.57;;;12.20;99.90;;;;;;5040029;28;20049;-87
2023/01/01 01:36:57;;;;;;;4.75;2.90;;;12.20;99.90;;;;;;5056635;28;20040;-87
2023/01/01 01:39:23;;;;;;;5.83;3.40;;;12.20;99.90;;;;;;5023518;28;20052;-90
2023/01/01 01:41:49;;;;;;;6.13;4.07;;;12.20;99.90;;;;;;5056694;28;20040;-86
2023/01/01 01:44:48;;;;;;;2.37;2.17;;;12.20;99.90;;;;;;5040258;28;20494;-86
2023/01/01 01:47:38;;;;;;;4.43;2.58;;;12.20;99.90;;;;;;5040019;28;20051;-87
2023/01/01 01:50:07;;;;;;;3.65;2.83;;;12.20;99.90;;;;;;5040064;28;20048;-87
2023/01/01 01:52:36;;;;;;;3.03;2.38;;;12.20;99.90;;;;;;5056212;28;20053;-87
2023/01/01 01:55:04;;;;;;;5.10;2.33;;;12.20;99.90;;;;;;5056240;28;20052;-87
2023/01/01 01:57:31;;;;;;;4.80;2.90;;;12.20;99.90;;;;;;5055769;28;20037;-87
2023/01/01 01:59:58;;;;;;;3.60;2.35;;;12.10;99.90;;;;;;5042334;28;21228;-86
2023/01/01 02:02:45;;;;;;;4.20;3.05;;;12.10;99.90;;;;;;5042840;28;20063;-85
2023/01/01 02:05:12;;;;;;;3.28;1.95;;;12.10;99.90;;;;;;5059839;28;20052;-87
2023/01/01 02:07:38;;;;;;;5.05;3.22;;;12.10;99.90;;;;;;5059212;28;20052;-87
2023/01/01 02:10:04;;;;;;;3.55;3.10;;;12.10;99.90;;;;;;5059490;28;20048;-87
2023/01/01 02:12:30;;;;;;;3.70;3.15;;;12.20;99.90;;;;;;5059207;28;20044;-87
2023/01/01 02:14:56;;;;;;;2.40;2.17;;;12.20;99.90;;;;;;5059826;28;20097;-87
2023/01/01 02:17:33;;;;;;;4.73;2.53;;;12.20;99.90;;;;;;5075926;28;20422;-87
2023/01/01 02:20:01;;;;;;;4.38;3.47;;;12.20;99.90;;;;;;5059105;28;20482;-87
2023/01/01 02:22:27;;;;;;;2.85;1.85;;;12.20;99.90;;;;;;5059131;28;20075;-91
2023/01/01 02:25:17;;;;;;;3.47;2.33;;;12.20;99.90;;;;;;5075621;28;20478;-86
2023/01/01 02:27:45;;;;;;;3.25;1.80;;;12.20;99.90;;;;;;5058888;28;20048;-87
2023/01/01 02:30:11;;;;;;;2.00;1.60;;;12.20;99.90;;;;;;5045530;28;20055;-86
2023/01/01 02:33:02;;;;;;;1.95;1.60;;;12.20;99.90;;;;;;5055389;28;20036;-87
2023/01/01 02:35:41;;;;;;;1.92;1.83;;;12.30;99.90;;;;;;5054921;28;20056;-89
2023/01/01 02:38:14;;;;;;;1.63;1.42;;;12.30;99.90;;;;;;5055790;28;20391;-87
2023/01/01 02:40:44;;;;;;;1.92;1.52;;;12.30;99.90;;;;;;5038795;28;20185;-87
2023/01/01 02:43:10;;;;;;;1.75;1.55;;;12.40;99.90;;;;;;5039134;28;20116;-87
2023/01/01 02:45:35;;;;;;;1.57;1.30;;;12.30;99.90;;;;;;5022097;28;20048;-87
2023/01/01 02:48:06;;;;;;;1.87;1.73;;;12.40;99.90;;;;;;5055321;28;20068;-86
2023/01/01 02:50:35;;;;;;;1.35;1.25;;;12.40;99.90;;;;;;5055327;28;20376;-90
2023/01/01 02:53:30;;;;;;;1.52;1.38;;;12.40;99.90;;;;;;5006555;28;20058;-86
2023/01/01 02:56:11;;;;;;;1.75;1.30;;;12.50;99.90;;;;;;5055061;28;20049;-87
2023/01/01 03:02:10;;;;;;;1.20;1.10;;;12.40;99.90;;;;;;5057085;28;20051;-91
2023/01/01 03:05:04;;;;;;;3.78;1.25;;;12.40;99.90;;;;;;4994031;28;20535;-87
2023/01/01 03:07:55;;;;;;;1.17;0.85;;;12.50;99.90;;;;;;5014604;28;20088;-87
2023/01/01 03:10:53;;;;;;;0.90;0.90;;;12.50;99.90;;;;;;5064463;28;20051;-87
2023/01/01 03:13:43;;;;;;;0.95;0.93;;;12.50;99.90;;;;;;5075348;28;20048;-87
2023/01/01 03:16:22;;;;;;;1.40;1.17;;;12.50;99.90;;;;;;5058074;28;20051;-87
2023/01/01 03:19:09;;;;;;;1.58;0.80;;;12.50;99.90;;;;;;5058253;28;20048;-87
2023/01/01 03:21:48;;;;;;;0.90;0.80;;;12.60;99.90;;;;;;5075096;28;20398;-91
2023/01/01 03:24:36;;;;;;;0.70;0.60;;;12.70;99.90;;;;;;5075555;28;20055;-86
2023/01/01 03:27:14;;;;;;;0.82;0.70;;;12.80;99.90;;;;;;5075248;28;20055;-87
2023/01/01 03:29:41;;;;;;;;;;;12.90;99.90;;;;;;5058245;28;20052;-88
2023/01/01 03:32:13;;;;;;;2.58;0.75;;;12.90;99.90;;;;;;5053900;28;20290;-87
2023/01/01 03:34:46;;;;;;;0.50;0.40;;;12.80;99.90;;;;;;5054746;28;20494;-88
2023/01/01 03:37:18;;;;;;;0.45;0.30;;;12.80;99.90;;;;;;5038199;28;20041;-87
2023/01/01 03:39:51;;;;;;;0.70;0.52;;;12.80;99.90;;;;;;5038299;28;20056;-87
2023/01/01 03:42:21;;;;;;;0.45;0.40;;;12.80;99.90;;;;;;5038390;28;20402;-87
2023/01/01 03:44:53;;;;;;;0.30;0.30;;;12.80;99.90;;;;;;5054731;28;20185;-87
2023/01/01 03:47:19;;;;;;;0.75;0.38;;;12.80;99.90;;;;;;5038400;28;20386;-87
2023/01/01 03:49:45;;;;;;;0.32;0.22;;;12.90;99.90;;;;;;5021437;28;20130;-87
2023/01/01 03:52:38;;;;;;;0.93;0.50;;;12.90;99.90;;;;;;5021934;28;20048;-87
2023/01/01 03:55:17;;;;;;;0.30;0.30;;;12.80;99.90;;;;;;5038130;28;20044;-87
2023/01/01 03:58:01;;;;;;;0.20;0.10;;;12.90;99.90;;;;;;5054123;28;20051;-88
2023/01/01 04:00:32;;;;;;;0.30;0.30;;;12.80;99.90;;;;;;5054723;28;20044;-87
2023/01/01 04:03:17;;;;;;;0.65;0.60;;;12.80;99.90;;;;;;5051685;28;20063;-87
2023/01/01 04:05:43;;;;;;;0.77;0.52;;;12.80;99.90;;;;;;5014584;28;20068;-88
2023/01/01 04:08:10;;;;;;;0.15;0.15;;;12.80;99.90;;;;;;5015062;28;20132;-87
2023/01/01 04:10:40;;;;;;;1.13;0.17;;;12.80;99.90;;;;;;5034776;28;20041;-87
2023/01/01 04:13:06;;;;;;;1.52;0.85;;;12.80;99.90;;;;;;5034635;28;20045;-87
2023/01/01 04:15:33;;;;;;;0.50;0.23;;;12.80;99.90;;;;;;5018284;28;20506;-87
2023/01/01 04:18:01;;;;;;;2.22;0.17;;;12.90;99.90;;;;;;5001720;28;20471;-86
2023/01/01 04:20:27;;;;;;;0.38;0.15;;;12.90;99.90;;;;;;5018213;28;20049;-87
2023/01/01 04:22:57;;;;;;;0.70;0.70;;;12.90;99.90;;;;;;5017880;28;20045;-87
2023/01/01 04:25:23;;;;;;;0.17;0.15;;;12.90;99.90;;;;;;5002118;28;20056;-87
2023/01/01 04:27:49;;;;;;;0.20;0.20;;;12.90;99.90;;;;;;5005227;28;20049;-87
2023/01/01 04:30:15;;;;;;;0.33;0.20;;;12.90;99.90;;;;;;5005476;28;20045;-86
2023/01/01 04:32:41;;;;;;;0.40;0.22;;;12.90;99.90;;;;;;5021102;28;20051;-87
2023/01/01 04:35:10;;;;;;;0.25;0.25;;;12.90;99.90;;;;;;5057842;28;20049;-87
2023/01/01 04:37:37;;;;;;;0.45;0.40;;;12.80;99.90;;;;;;5041260;28;20131;-87
2023/01/01 04:40:03;;;;;;;0.40;0.40;;;12.80;99.90;;;;;;5040932;28;20044;-86
2023/01/01 04:42:29;;;;;;;0.30;0.30;;;12.60;99.90;;;;;;5024932;28;20380;-87
2023/01/01 04:44:55;;;;;;;0.53;0.20;;;12.50;99.90;;;;;;5041076;28;20070;-87
2023/01/01 04:47:21;;;;;;;0.60;0.60;;;12.50;99.90;;;;;;5041307;28;20503;-87
2023/01/01 04:49:46;;;;;;;0.25;0.25;;;12.40;99.90;;;;;;5057767;28;20102;-91
2023/01/01 04:52:12;;;;;;;0.37;0.20;;;12.40;99.90;;;;;;5040949;28;20057;-87
2023/01/01 04:54:38;;;;;;;0.13;0.13;;;12.30;99.90;;;;;;5057776;28;20127;-87
2023/01/01 04:57:04;;;;;;;0.10;0.10;;;12.30;99.90;;;;;;5024047;28;20548;-87
2023/01/01 04:59:30;;;;;;;0.28;0.15;;;12.30;99.90;;;;;;5057875;28;20041;-87
2023/01/01 05:01:56;;;;;;;0.20;0.20;;;12.30;99.90;;;;;;5040304;28;20060;-87
2023/01/01 05:04:22;;;;;;;0.43;0.38;;;12.30;99.90;;;;;;5023924;28;20060;-87
2023/01/01 05:06:48;;;;;;;0.07;0.07;;;12.20;99.90;;;;;;5024235;28;20048;-88
2023/01/01 05:09:14;;;;;;;0.10;0.10;;;12.20;99.90;;;;;;5040573;28;20044;-87
2023/01/01 05:11:39;;;;;;;0.20;0.20;;;12.30;99.90;;;;;;5057566;28;20036;-87
2023/01/01 05:14:06;;;;;;;0.80;0.20;;;12.30;99.90;;;;;;5056701;28;20101;-87
2023/01/01 05:16:35;;;;;;;0.93;0.40;;;12.20;99.90;;;;;;5057219;28;20156;-87
2023/01/01 05:19:02;;;;;;;0.00;0.00;;;12.20;99.90;;;;;;5040407;28;20448;-87
2023/01/01 05:21:30;;;;;;;;;;;12.20;99.90;;;;;;5057543;28;20045;-87
2023/01/01 05:24:05;;;;;;;0.25;0.22;;;12.30;99.90;;;;;;5040324;28;19928;-87
2023/01/01 05:26:34;;;;;;;0.55;0.20;;;12.20;99.90;;;;;;5040658;28;20391;-87
2023/01/01 05:29:00;;;;;;;0.00;0.00;;;12.20;99.90;;;;;;5056568;28;20041;-87
2023/01/01 05:31:30;;;;;;;0.10;0.10;;;12.30;99.90;;;;;;5040115;28;20052;-87
2023/01/01 05:33:56;;;;;;;0.03;0.03;;;12.30;99.90;;;;;;5040012;28;20051;-87
2023/01/01 05:36:24;;;;;;;0.15;0.00;;;12.30;99.90;;;;;;5057131;28;20044;-87
2023/01/01 05:38:51;;;;;;;0.10;0.10;;;12.30;99.90;;;;;;5055921;28;20051;-87
2023/01/01 05:41:18;;;;;;;0.17;0.17;;;12.30;99.90;;;;;;5056537;28;20036;-87
2023/01/01 05:43:45;;;;;;;0.35;0.10;;;12.30;99.90;;;;;;5056850;28;20440;-87
2023/01/01 05:46:13;;;;;;;0.30;0.15;;;12.30;99.90;;;;;;5039887;28;20132;-87
2023/01/01 05:48:39;;;;;;;0.00;0.00;;;12.30;99.90;;;;;;5056863;28;20051;-87
2023/01/01 05:51:10;;;;;;;0.17;0.13;;;12.30;99.90;;;;;;5023242;28;20417;-87
2023/01/01 05:53:36;;;;;;;0.10;0.10;;;12.30;99.90;;;;;;5056348;28;20135;-87
2023/01/01 05:56:02;;;;;;;0.10;0.10;;;12.20;99.90;;;;;;5023129;28;20136;-87
2023/01/01 05:58:30;;;;;;;0.10;0.00;;;12.20;99.90;;;;;;5039738;28;20479;-87
2023/01/01 06:00:56;;;;;;;0.10;0.10;;;12.20;99.90;;;;;;5039389;28;20389;-90
2023/01/01 06:03:22;;;;;;;0.25;0.20;;;12.20;99.90;;;;;;5056158;28;20057;-87
2023/01/01 06:05:47;;;;;;;0.00;0.00;;;12.20;99.90;;;;;;5055985;28;20052;-87
2023/01/01 06:08:13;;;;;;;0.00;0.00;;;12.20;99.90;;;;;;5047753;28;20044;-87
2023/01/01 06:10:39;;;;;;;0.00;0.00;;;12.10;99.90;;;;;;5076036;28;20398;-87
2023/01/01 06:13:05;;;;;;;0.03;0.03;;;12.10;99.90;;;;;;5059258;28;20294;-87
2023/01/01 06:15:31;;;;;;;0.00;0.00;;;12.10;99.90;;;;;;5076212;28;20040;-87
2023/01/01 06:17:57;;;;;;;0.00;0.00;;;12.10;99.90;;;;;;5022935;28;20048;-91
2023/01/01 06:20:23;;;;;;;;;;;12.00;99.90;;;;;;5041279;28;20055;-87
2023/01/01 06:22:49;;;;;;;0.10;0.10;;;12.00;99.90;;;;;;5059432;28;19920;-87
2023/01/01 06:25:15;;;;;;;0.00;0.00;;;12.00;99.90;;;;;;5059113;28;20052;-87
2023/01/01 06:27:40;;;;;;;0.07;0.07;;;12.00;99.90;;;;;;5059350;28;20040;-87
2023/01/01 06:30:07;;;;;;;0.00;0.00;;;11.90;99.90;;;;;;5042036;28;20125;-87
2023/01/01 06:32:33;;;;;;;;;;;11.90;99.90;;;;;;5075537;28;20438;-87
2023/01/01 06:34:59;;;;;;;0.00;0.00;;;11.90;99.90;;;;;;5059161;28;19970;-92
2023/01/01 06:37:26;;;;;;;0.40;0.13;;;11.90;99.90;;;;;;5075448;28;20044;-87
2023/01/01 06:39:51;;;;;;;0.20;0.20;;;11.80;99.90;;;;;;5059046;28;20713;-87
2023/01/01 06:42:17;;;;;;;0.37;0.20;;;11.80;99.90;;;;;;5058669;28;20123;-87
2023/01/01 06:44:43;;;;;;;0.00;0.00;;;11.80;99.90;;;;;;5042389;28;20475;-87
2023/01/01 06:47:08;;;;;;;0.07;0.07;;;11.80;99.90;;;;;;5025319;28;20040;-87
2023/01/01 06:49:34;;;;;;;0.60;0.13;;;11.80;99.90;;;;;;5058230;28;20094;-87
2023/01/01 06:52:00;;;;;;;0.00;0.00;;;11.80;99.90;;;;;;5042277;28;20040;-90
2023/01/01 06:54:25;;;;;;;0.00;0.00;;;11.80;99.90;;;;;;5075258;28;20489;-87
2023/01/01 06:56:51;;;;;;;0.00;0.00;;;11.80;99.90;;;;;;5041989;28;20043;-87
2023/01/01 06:59:17;;;;;;;1.10;0.10;;;11.70;99.90;;;;;;5058595;28;20552;-87
2023/01/01 07:01:43;;;;;;;0.17;0.10;;;11.70;99.90;;;;;;5067707;28;20044;-87
2023/01/01 07:04:14;;;;;;;0.00;0.00;;;11.70;99.90;;;;;;5054635;28;20451;-87
2023/01/01 07:06:40;;;;;;;0.08;0.00;;;11.60;99.90;;;;;;5038903;28;20059;-87
2023/01/01 07:09:06;;;;;;;0.45;0.03;;;11.60;99.90;;;;;;5054943;28;20052;-87
2023/01/01 07:11:32;;;;;;;0.00;0.00;;;11.60;99.90;;;;;;5039254;28;20475;-87
2023/01/01 07:13:58;;;;;;;0.00;0.00;;;11.60;99.90;;;;;;5038467;28;20135;-87
2023/01/01 07:16:24;;;;;;;0.00;0.00;;;11.50;99.90;;;;;;5054626;28;20123;-87
2023/01/01 07:18:50;;;;;;;0.08;0.08;;;11.50;99.90;;;;;;5038535;28;20045;-87
2023/01/01 07:21:31;;;;;;;0.10;0.10;;;11.50;99.90;;;;;;5038301;28;20049;-87
2023/01/01 07:23:58;;;;;;;0.00;0.00;;;11.50;99.90;;;;;;5038450;28;20064;-87
2023/01/01 07:26:25;;;;;;;0.10;0.10;;;11.50;99.90;;;;;;5054802;28;20476;-87
2023/01/01 07:28:51;;;;;;;0.10;0.10;;;11.50;99.90;;;;;;5038586;28;20139;-87
2023/01/01 07:31:17;;;;;;;0.10;0.10;;;11.40;99.90;;;;;;5038723;28;20045;-87
2023/01/01 07:33:42;;;;;;;0.00;0.00;;;11.50;99.90;;;;;;5041332;28;20098;-87
2023/01/01 07:36:08;;;;;;;0.00;0.00;;;11.50;99.90;;;;;;5057808;28;20061;-91
2023/01/01 07:38:34;;;;;;;0.00;0.00;;;11.50;99.90;;;;;;5041224;28;20482;-87
2023/01/01 07:41:00;;;;;;;0.00;0.00;;;11.40;99.90;;;;;;5075058;28;20689;-87
2023/01/01 07:43:25;;;;;;;0.00;0.00;;;11.40;99.90;;;;;;5041324;28;20040;-87
2023/01/01 07:45:51;;;;;;;0.17;0.10;;;11.40;99.90;;;;;;5041470;28;20044;-87
2023/01/01 07:48:17;;;;;;;0.50;0.50;;;11.40;99.90;;;;;;5057919;28;20043;-87
2023/01/01 07:50:42;;;;;;;0.23;0.10;;;11.40;99.90;;;;;;5058221;28;20498;-87
2023/01/01 07:53:08;;;;;;;15.53;0.37;;;11.40;99.90;;;;;;5041529;28;20075;-90
2023/01/01 07:55:34;;;;;;;0.17;0.10;;;11.30;99.90;;;;;;5041408;28;20079;-87
2023/01/01 07:58:00;;;;;;;0.00;0.00;;;11.30;99.90;;;;;;5058315;28;20051;-87
2023/01/01 08:00:26;;;;;;;0.35;0.35;;;11.30;99.90;;;;;;5074926;28;20040;-87
2023/01/01 08:02:52;;;;;;;0.00;0.00;;;11.30;99.90;;;;;;5076674;28;20044;-87
2023/01/01 08:05:18;;;;;;;0.13;0.10;;;11.30;99.90;;;;;;5040969;28;20075;-87
2023/01/01 08:07:48;;;;;;;0.00;0.00;;;11.20;99.90;;;;;;5042432;28;20083;-87
2023/01/01 08:10:15;;;;;;;0.00;0.00;;;11.20;99.90;;;;;;5025382;28;20082;-87
2023/01/01 08:12:41;;;;;;;0.00;0.00;;;11.20;99.90;;;;;;5025547;28;20122;-87
2023/01/01 08:15:08;;;;;;;0.10;0.10;;;11.20;99.90;;;;;;5025476;28;20044;-87
2023/01/01 08:17:34;;;;;;;1.00;0.20;;;11.20;99.90;;;;;;5040639;28;20063;-87
2023/01/01 08:19:59;;;;;;;0.30;0.20;;;11.20;99.90;;;;;;5041909;28;20475;-87
2023/01/01 08:22:25;;;;;;;0.00;0.00;;;11.20;99.90;;;;;;5057998;28;20048;-87
2023/01/01 08:24:51;;;;;;;0.00;0.00;;;11.20;99.90;;;;;;5025234;28;20048;-87
2023/01/01 08:27:17;;;;;;;0.17;0.17;;;11.20;99.90;;;;;;5024992;28;20040;-88
2023/01/01 08:29:43;;;;;;;0.10;0.10;;;11.20;99.90;;;;;;5025029;28;20041;-87
2023/01/01 08:32:09;;;;;;;0.75;0.22;;;11.10;99.90;;;;;;5041681;28;20506;-87
2023/01/01 08:34:35;;;;;;;0.10;0.10;;;11.10;99.90;;;;;;5075218;28;20086;-87
2023/01/01 08:37:01;;;;;;;0.10;0.10;;;11.10;99.90;;;;;;5078084;28;20133;-87
2023/01/01 08:39:27;;;;;;;2.33;0.37;;;11.10;99.90;;;;;;5061085;28;20086;-87
2023/01/01 08:41:53;;;;;;;0.20;0.13;;;11.10;99.90;;;;;;5061362;28;20091;-87
2023/01/01 08:44:18;;;;;;;0.30;0.20;;;11.10;99.90;;;;;;5077529;28;20044;-87
2023/01/01 08:46:44;;;;;;;0.00;0.00;;;11.10;99.90;;;;;;5044644;28;20067;-87
2023/01/01 08:49:10;;;;;;;0.20;0.10;;;11.00;99.90;;;;;;5061292;28;20079;-87
2023/01/01 08:51:35;;;;;;;0.13;0.13;;;11.00;99.90;;;;;;5027858;28;20605;-87
2023/01/01 08:54:01;;;;;;;0.00;0.00;;;11.00;99.90;;;;;;5061176;28;20084;-87
2023/01/01 08:56:27;;;;;;;0.00;0.00;;;11.00;99.90;;;;;;5060670;28;20117;-88
2023/01/01 08:58:53;;;;;;;0.00;0.00;;;11.00;99.90;;;;;;5044520;28;20048;-87
2023/01/01 09:01:20;;;;;;;0.00;0.00;;;11.00;99.90;;;;;;5060713;28;20487;-89
2023/01/01 09:03:49;;;;;;;0.10;0.10;;;11.00;99.90;;;;;;5058668;28;20056;-87
2023/01/01 09:06:15;;;;;;;0.73;0.10;;;11.00;99.90;;;;;;5077666;28;20410;-87
2023/01/01 09:08:41;;;;;;;0.00;0.00;;;11.00;99.90;;;;;;5043995;28;20040;-87
2023/01/01 09:11:06;;;;;;;0.43;0.43;;;11.00;99.90;;;;;;5044194;28;20090;-87
2023/01/01 09:13:33;;;;;;;0.00;0.00;;;11.00;99.90;;;;;;5075922;28;20048;-87
2023/01/01 09:15:59;;;;;;;1.55;0.10;;;11.00;99.90;;;;;;5060753;28;20032;-87
2023/01/01 09:18:25;;;;;;;0.00;0.00;;;11.10;99.90;;;;;;5060267;28;20093;-87
2023/01/01 09:20:50;;;;;;;0.10;0.10;;;11.00;99.90;;;;;;5077407;28;20086;-87
2023/01/01 09:23:16;;;;;;;0.00;0.00;;;11.10;99.90;;;;;;5043831;28;20084;-87
2023/01/01 09:25:42;;;;;;;0.00;0.00;;;11.00;99.90;;;;;;5043781;28;20055;-87
2023/01/01 09:28:11;;;;;;;0.33;0.10;;;11.10;99.90;;;;;;5044077;28;20498;-87
2023/01/01 09:30:37;;;;;;;0.00;0.00;;;11.10;99.90;;;;;;5059999;28;20036;-87
2023/01/01 09:33:03;;;;;;;0.05;0.05;;;11.10;99.90;;;;;;5060364;28;20096;-87
2023/01/01 09:35:30;;;;;;;0.10;0.10;;;11.10;99.90;;;;;;5057984;28;20058;-87
2023/01/01 09:37:55;;;;;;;;;;;11.10;99.90;;;;;;5060062;28;20044;-87
2023/01/01 09:40:47;;;;;;;0.10;0.10;;;11.10;99.90;;;;;;5076979;28;20358;-91
2023/01/01 09:43:26;;;;;;;0.70;0.13;;;11.10;99.90;;;;;;5059877;28;20506;-87
2023/01/01 09:45:56;;;;;;;0.10;0.05;;;11.10;99.90;;;;;;5060169;28;20142;-87
2023/01/01 09:48:23;;;;;;;0.00;0.00;;;11.10;99.90;;;;;;5076740;28;20036;-89
2023/01/01 09:50:49;;;;;;;0.45;0.30;;;11.10;99.90;;;;;;5059917;28;20051;-87
2023/01/01 09:53:21;;;;;;;1.83;0.17;;;11.10;99.90;;;;;;5076770;28;20040;-87
2023/01/01 09:55:55;;;;;;;0.00;0.00;;;11.10;99.90;;;;;;5076131;28;20394;-87
2023/01/01 09:58:27;;;;;;;0.10;0.10;;;11.20;99.90;;;;;;5076577;28;20087;-87
2023/01/01 10:01:03;;;;;;;0.00;0.00;;;11.20;99.90;;;;;;5060370;28;20070;-87
2023/01/01 10:03:46;;;;;;;0.20;0.20;;;11.20;99.90;;;;;;5076371;28;20135;-87
2023/01/01 10:06:22;;;;;;;0.10;0.10;;;11.20;99.90;;;;;;5059117;28;20052;-87
2023/01/01 10:08:51;;;;;;;0.00;0.00;;;11.20;99.90;;;;;;5055679;28;20066;-87
2023/01/01 10:11:54;;;;;;;0.03;0.03;;;11.20;99.90;;;;;;5039621;28;20091;-87
2023/01/01 10:14:27;;;;;;;0.10;0.10;;;11.20;99.90;;;;;;5039679;28;20056;-87
2023/01/01 10:16:55;;;;;;;0.05;0.05;;;11.20;99.90;;;;;;5055934;28;20087;-88
2023/01/01 10:19:33;;;;;;;0.00;0.00;;;11.20;99.90;;;;;;5056268;28;20462;-87
2023/01/01 10:22:08;;;;;;;0.00;0.00;;;11.20;99.90;;;;;;5055866;28;20054;-87
2023/01/01 10:24:43;;;;;;;0.00;0.00;;;11.20;99.90;;;;;;5038526;28;20048;-88
2023/01/01 10:27:32;;;;;;;0.00;0.00;;;11.20;99.90;;;;;;5055917;28;20099;-87
2023/01/01 10:30:01;;;;;;;0.00;0.00;;;11.30;99.90;;;;;;5038072;28;20568;-87
2023/01/01 10:32:31;;;;;;;0.00;0.00;;;11.40;99.90;;;;;;5039249;28;20119;-89
2023/01/01 10:34:59;;;;;;;0.10;0.10;;;11.40;99.90;;;;;;5055616;28;20074;-88
2023/01/01 10:37:31;;;;;;;0.20;0.08;;;11.60;99.90;;;;;;5073773;28;20041;-87
2023/01/01 10:39:57;;;;;;;0.00;0.00;;;11.70;99.90;;;;;;5059225;28;20052;-87
2023/01/01 10:42:25;;;;;;;0.00;0.00;;;11.80;99.90;;;;;;5042411;28;20101;-87
2023/01/01 10:44:52;;;;;;;0.20;0.20;;;11.80;99.90;;;;;;5058697;28;20732;-87
2023/01/01 10:47:28;;;;;;;0.20;0.20;;;11.90;99.90;;;;;;5075268;28;20517;-87
2023/01/01 10:50:06;;;;;;;0.00;0.00;;;12.10;99.90;;;;;;5058707;28;20059;-87
2023/01/01 10:52:39;;;;;;;0.20;0.00;;;12.20;99.90;;;;;;5058668;28;20820;-91
2023/01/01 10:55:17;;;;;;;0.32;0.10;;;12.20;99.90;;;;;;5075369;28;20398;-87
2023/01/01 10:57:43;;;;;;;0.00;0.00;;;12.30;99.90;;;;;;5074926;28;20044;-88
2023/01/01 11:00:27;;;;;;;0.00;0.00;;;12.20;99.90;;;;;;5042372;28;20177;-88
2023/01/01 11:03:21;;;;;;;0.00;0.00;;;12.20;99.90;;;;;;5058506;28;20063;-88
2023/01/01 11:06:33;;;;;;;0.40;0.20;;;12.20;99.90;;;;;;5069464;28;20044;-88
2023/01/01 11:09:02;;;;;;;0.28;0.28;;;12.10;99.90;;;;;;5054285;28;20052;-87
2023/01/01 11:11:44;;;;;;;1.17;0.77;;;12.00;99.90;;;;;;5038509;28;20056;-87
2023/01/01 11:14:18;;;;;;;1.75;0.52;;;11.90;99.90;;;;;;5038632;28;20052;-87
2023/01/01 11:16:45;;;;;;;2.10;1.92;;;11.90;99.90;;;;;;5037770;28;20036;-88
2023/01/01 11:19:20;;;;;;;0.85;0.30;;;11.90;99.90;;;;;;5055099;28;20048;-88
2023/01/01 11:21:46;;;;;;;0.40;0.40;;;11.80;99.90;;;;;;5054891;28;20114;-87
2023/01/01 11:24:17;;;;;;;;;;;11.80;99.90;;;;;;5038421;28;20044;-87
2023/01/01 11:26:44;;;;;;;1.10;1.00;;;11.70;99.90;;;;;;5038024;28;19920;-88
2023/01/01 11:29:15;;;;;;;1.55;0.50;;;11.70;99.90;;;;;;5022168;28;20044;-87
2023/01/01 11:31:43;;;;;;;0.95;0.50;;;11.70;99.90;;;;;;5054357;28;20055;-87
2023/01/01 11:34:24;;;;;;;2.53;0.75;;;11.70;99.90;;;;;;5038558;28;20394;-87
2023/01/01 11:36:50;;;;;;;0.20;0.20;;;11.80;99.90;;;;;;5040802;28;20049;-88
2023/01/01 11:39:25;;;;;;;0.75;0.75;;;11.80;99.90;;;;;;5013871;28;20050;-88
2023/01/01 11:41:54;;;;;;;0.80;0.50;;;11.80;99.90;;;;;;5062020;28;20067;-87
2023/01/01 11:44:43;;;;;;;0.40;0.30;;;11.80;99.90;;;;;;5078848;28;20074;-87
2023/01/01 11:47:39;;;;;;;0.28;0.28;;;11.80;99.90;;;;;;5079160;28;20048;-87
2023/01/01 11:50:25;;;;;;;0.30;0.30;;;11.80;99.90;;;;;;5077021;28;20060;-87
2023/01/01 11:52:52;;;;;;;0.20;0.20;;;11.80;99.90;;;;;;5062010;28;20047;-87
2023/01/01 11:55:38;;;;;;;0.15;0.08;;;11.80;99.90;;;;;;5045633;28;20379;-87
2023/01/01 11:58:28;;;;;;;0.10;0.10;;;11.80;99.90;;;;;;5078763;28;20055;-87
2023/01/01 12:00:58;;;;;;;0.17;0.10;;;11.90;99.90;;;;;;5078425;28;20070;-87
2023/01/01 12:03:30;;;;;;;0.30;0.30;;;12.00;99.90;;;;;;5078624;28;20591;-87
2023/01/01 12:06:26;;;;;;;0.13;0.13;;;12.20;99.90;;;;;;5042258;28;20495;-87
2023/01/01 12:08:52;;;;;;;0.00;0.00;;;12.40;99.90;;;;;;5031651;28;20096;-87
2023/01/01 12:11:30;;;;;;;0.00;0.00;;;12.70;99.90;;;;;;5022485;28;20448;-87
2023/01/01 12:14:03;;;;;;;0.20;0.10;;;12.80;99.90;;;;;;5021583;28;20048;-87
2023/01/01 12:16:49;;;;;;;0.00;0.00;;;13.00;99.90;;;;;;5038428;28;20047;-87
2023/01/01 12:19:40;;;;;;;1.67;0.15;;;13.00;99.90;;;;;;5022022;28;20056;-87
2023/01/01 12:22:15;;;;;;;0.28;0.20;;;12.90;99.90;;;;;;5021076;28;20125;-87
2023/01/01 12:24:41;;;;;;;0.55;0.10;;;12.70;99.90;;;;;;5021748;28;20480;-87
2023/01/01 12:27:21;;;;;;;;;;;12.00;99.90;;;;;;5022005;28;20092;-87
2023/01/01 12:29:55;;;;;;;0.00;0.00;;;12.40;99.90;;;;;;5038155;28;20008;-88
2023/01/01 12:32:29;;;;;;;0.88;0.88;;;12.30;99.90;;;;;;5022016;28;20057;-87
2023/01/01 12:35:19;;;;;;;0.40;0.40;;;12.20;99.90;;;;;;5037855;28;20044;-88
2023/01/01 12:37:57;;;;;;;0.10;0.10;;;12.10;99.90;;;;;;5037178;28;20191;-91
2023/01/01 12:40:47;;;;;;;0.30;0.08;;;12.10;99.90;;;;;;5021689;28;20064;-87
2023/01/01 12:43:20;;;;;;;0.10;0.03;;;12.10;99.90;;;;;;5038299;28;20511;-87
2023/01/01 12:46:30;;;;;;;0.00;0.00;;;12.00;99.90;;;;;;5022008;28;20045;-91
2023/01/01 12:49:15;;;;;;;0.05;0.05;;;12.00;99.90;;;;;;4943770;28;20208;-87
2023/01/01 12:51:49;;;;;;;0.25;0.20;;;11.90;99.90;;;;;;4959107;28;20046;-87
2023/01/01 12:54:44;;;;;;;0.00;0.00;;;11.90;99.90;;;;;;4993850;28;20056;-87
2023/01/01 12:57:34;;;;;;;0.05;0.00;;;11.80;99.90;;;;;;4990504;28;20057;-87
2023/01/01 13:00:03;;;;;;;0.75;0.43;;;11.80;99.90;;;;;;5020992;28;20049;-87
2023/01/01 13:02:33;;;;;;;0.10;0.03;;;11.80;99.90;;;;;;5021055;28;20049;-87
2023/01/01 13:05:15;;;;;;;0.30;0.30;;;11.70;99.90;;;;;;5050999;28;20075;-87
2023/01/01 13:07:45;;;;;;;0.00;0.00;;;11.70;99.90;;;;;;5058675;28;20487;-88
2023/01/01 13:10:28;;;;;;;0.10;0.05;;;11.70;99.90;;;;;;5029787;28;20036;-88